Time;durP1;ratioP1;P1;durP2;ratioP2;P2;SDS_P1;SDS_P2;PMS_P1;PMS_P2;Temp;Humidity;BMP_temperature;BMP_pressure;BME280_temperature;BME280_humidity;BME280_pressure;Samples;Min_cycle;Max_cycle;Signal;HPM_P1;HPM_P2
2021/12/13 00:01:39;;;;;;;;;;;10.40;99.90;;;;;;5054982;28;19924;-81
2021/12/13 00:04:10;;;;;;;;;;;10.40;99.90;;;;;;5063730;28;19925;-71
2021/12/13 00:06:43;;;;;;;;;;;10.40;99.90;;;;;;5053612;28;19921;-77
2021/12/13 00:09:13;;;;;;;;;;;10.40;99.90;;;;;;5068419;28;19920;-76
2021/12/13 00:11:42;;;;;;;;;;;10.40;99.90;;;;;;5074974;28;19921;-83
2021/12/13 00:14:13;;;;;;;;;;;10.30;99.90;;;;;;5074176;28;20398;-84
2021/12/13 00:16:42;;;;;;;;;;;10.30;99.90;;;;;;5073050;28;19920;-82
2021/12/13 00:19:14;;;;;;;;;;;10.30;99.90;;;;;;5070668;28;19939;-80
2021/12/13 00:21:44;;;;;;;;;;;10.30;99.90;;;;;;5071332;28;19920;-68
2021/12/13 00:24:19;;;;;;;;;;;10.30;99.90;;;;;;5070085;28;19935;-67
2021/12/13 00:26:49;;;;;;;;;;;10.20;99.90;;;;;;5070217;28;19928;-64
2021/12/13 00:29:19;;;;;;;;;;;10.20;99.90;;;;;;5069985;28;19920;-62
2021/12/13 00:31:50;;;;;;;;;;;10.20;99.90;;;;;;5069801;28;19960;-61
2021/12/13 00:34:30;;;;;;;;;;;10.20;99.90;;;;;;5060578;28;19929;-62
2021/12/13 00:37:01;;;;;;;;;;;10.20;99.90;;;;;;5065184;28;19920;-62
2021/12/13 00:39:35;;;;;;;;;;;10.20;99.90;;;;;;5065454;28;20265;-62
2021/12/13 00:42:03;;;;;;;;;;;10.30;99.90;;;;;;5069140;28;20398;-75
2021/12/13 00:44:37;;;;;;;;;;;10.30;99.90;;;;;;5068845;28;19920;-72
2021/12/13 00:47:06;;;;;;;;;;;10.30;99.90;;;;;;5068996;28;19924;-68
2021/12/13 00:49:38;;;;;;;;;;;10.30;99.90;;;;;;5058980;28;19943;-64
2021/12/13 00:52:06;;;;;;;;;;;10.40;99.90;;;;;;5048153;28;20384;-61
2021/12/13 00:54:36;;;;;;;;;;;10.40;99.90;;;;;;5065245;28;19927;-61
2021/12/13 00:57:10;;;;;;;;;;;10.50;99.90;;;;;;5058812;28;19927;-61
2021/12/13 00:59:37;;;;;;;;;;;10.40;99.90;;;;;;5051538;28;19921;-61
2021/12/13 01:02:07;;;;;;;;;;;10.40;99.90;;;;;;5067305;28;19932;-61
2021/12/13 01:04:54;;;;;;;;;;;10.50;99.90;;;;;;5055745;28;19921;-66
2021/12/13 01:07:31;;;;;;;;;;;10.50;99.90;;;;;;5047321;28;19921;-61
2021/12/13 01:09:58;;;;;;;;;;;10.50;99.90;;;;;;5049263;28;19924;-64
2021/12/13 01:12:27;;;;;;;;;;;10.50;99.90;;;;;;5049898;28;19947;-62
2021/12/13 01:15:00;;;;;;;;;;;10.50;99.90;;;;;;5066337;28;20195;-62
2021/12/13 01:20:33;;;;;;;;;;;10.50;99.90;;;;;;5053417;28;19924;-61
2021/12/13 01:23:07;;;;;;;;;;;10.50;99.90;;;;;;5051426;28;19924;-65
2021/12/13 01:28:27;;;;;;;;;;;10.50;99.90;;;;;;5068510;28;20399;-61
2021/12/13 01:30:57;;;;;;;;;;;10.50;99.90;;;;;;5068249;28;20391;-62
2021/12/13 01:33:26;;;;;;;;;;;10.50;99.90;;;;;;5068406;28;19920;-62
2021/12/13 01:35:54;;;;;;;;;;;10.40;99.90;;;;;;5049741;28;20390;-62
2021/12/13 01:38:33;;;;;;;;;;;10.50;99.90;;;;;;5054271;28;20291;-61
2021/12/13 01:41:21;;;;;;;;;;;10.50;99.90;;;;;;5067491;28;20296;-64
2021/12/13 01:43:54;;;;;;;;;;;10.50;99.90;;;;;;5068217;28;19928;-62
2021/12/13 01:46:23;;;;;;;;;;;10.50;99.90;;;;;;5068901;28;19947;-63
2021/12/13 01:48:52;;;;;;;;;;;10.40;99.90;;;;;;5067414;28;19921;-66
2021/12/13 01:51:26;;;;;;;;;;;10.40;99.90;;;;;;5047302;28;19924;-63
2021/12/13 01:53:58;;;;;;;;;;;10.40;99.90;;;;;;5058671;28;19930;-61
2021/12/13 01:56:47;;;;;;;;;;;10.40;99.90;;;;;;5067579;28;19920;-62
2021/12/13 02:02:07;;;;;;;;;;;10.40;99.90;;;;;;5069202;28;19924;-68
2021/12/13 02:04:36;;;;;;;;;;;10.40;99.90;;;;;;5063947;28;19927;-72
2021/12/13 02:07:04;;;;;;;;;;;10.40;99.90;;;;;;5047554;28;19924;-70
2021/12/13 02:09:34;;;;;;;;;;;10.50;99.90;;;;;;5047225;28;19948;-66
2021/12/13 02:12:04;;;;;;;;;;;10.50;99.90;;;;;;5069214;28;20261;-72
2021/12/13 02:14:34;;;;;;;;;;;10.50;99.90;;;;;;5067495;28;19921;-75
2021/12/13 02:17:10;;;;;;;;;;;10.50;99.90;;;;;;5068261;28;20372;-68
2021/12/13 02:19:43;;;;;;;;;;;10.50;99.90;;;;;;5062977;28;19920;-68
2021/12/13 02:22:31;;;;;;;;;;;10.50;99.90;;;;;;5049005;28;19928;-72
2021/12/13 02:25:00;;;;;;;;;;;10.50;99.90;;;;;;5100349;28;20311;-80
2021/12/13 02:27:31;;;;;;;;;;;10.50;99.90;;;;;;5069497;28;19920;-76
2021/12/13 02:30:00;;;;;;;;;;;10.50;99.90;;;;;;5069286;28;20388;-70
2021/12/13 02:32:28;;;;;;;;;;;10.50;99.90;;;;;;5052833;28;20377;-71
2021/12/13 02:34:57;;;;;;;;;;;10.50;99.90;;;;;;5052813;28;19920;-80
2021/12/13 02:37:26;;;;;;;;;;;10.50;99.90;;;;;;5052819;28;20101;-81
2021/12/13 02:39:56;;;;;;;;;;;10.50;99.90;;;;;;5072491;28;19921;-78
2021/12/13 02:42:24;;;;;;;;;;;10.50;99.90;;;;;;5075143;28;19920;-78
2021/12/13 02:44:57;;;;;;;;;;;10.50;99.90;;;;;;5078312;28;19920;-75
2021/12/13 02:47:29;;;;;;;;;;;10.50;99.90;;;;;;5078060;28;19921;-81
2021/12/13 02:49:57;;;;;;;;;;;10.50;99.90;;;;;;5080530;28;20287;-83
2021/12/13 02:52:25;;;;;;;;;;;10.50;99.90;;;;;;5080000;28;19928;-79
2021/12/13 02:54:55;;;;;;;;;;;10.50;99.90;;;;;;5077966;28;19920;-75
2021/12/13 02:57:31;;;;;;;;;;;10.50;99.90;;;;;;5076155;28;20386;-67
2021/12/13 03:00:05;;;;;;;;;;;10.50;99.90;;;;;;5075638;28;20316;-71
2021/12/13 03:02:35;;;;;;;;;;;10.50;99.90;;;;;;5074768;28;19920;-67
2021/12/13 03:05:06;;;;;;;;;;;10.50;99.90;;;;;;5074500;28;19920;-65
2021/12/13 03:07:35;;;;;;;;;;;10.50;99.90;;;;;;5074604;28;19920;-67
2021/12/13 03:10:10;;;;;;;;;;;10.50;99.90;;;;;;5074786;28;19920;-69
2021/12/13 03:12:37;;;;;;;;;;;10.40;99.90;;;;;;5056801;28;19924;-66
2021/12/13 03:15:08;;;;;;;;;;;10.40;99.90;;;;;;5073417;28;20323;-66
2021/12/13 03:17:43;;;;;;;;;;;10.50;99.90;;;;;;5073561;28;19931;-67
2021/12/13 03:20:11;;;;;;;;;;;10.40;99.90;;;;;;5074540;28;20356;-66
2021/12/13 03:22:53;;;;;;;;;;;10.40;99.90;;;;;;5074543;28;19932;-65
2021/12/13 03:25:21;;;;;;;;;;;10.40;99.90;;;;;;5074514;28;19924;-66
2021/12/13 03:27:58;;;;;;;;;;;10.40;99.90;;;;;;5074620;28;20174;-65
2021/12/13 03:30:31;;;;;;;;;;;10.40;99.90;;;;;;5074593;28;19927;-65
2021/12/13 03:33:10;;;;;;;;;;;10.40;99.90;;;;;;5074316;28;19920;-65
2021/12/13 03:35:44;;;;;;;;;;;10.30;99.90;;;;;;5074405;28;20315;-65
2021/12/13 03:38:17;;;;;;;;;;;10.40;99.90;;;;;;5074222;28;20003;-65
2021/12/13 03:40:47;;;;;;;;;;;10.30;99.90;;;;;;5074284;28;19920;-65
2021/12/13 03:43:17;;;;;;;;;;;10.30;99.90;;;;;;5072588;28;20376;-65
2021/12/13 03:45:50;;;;;;;;;;;10.30;99.90;;;;;;5056290;28;20364;-65
2021/12/13 03:48:19;;;;;;;;;;;10.40;99.90;;;;;;5074038;28;19928;-66
2021/12/13 03:50:50;;;;;;;;;;;10.30;99.90;;;;;;5073651;28;20544;-65
2021/12/13 03:53:19;;;;;;;;;;;10.40;99.90;;;;;;5073849;28;19921;-65
2021/12/13 03:55:49;;;;;;;;;;;10.40;99.90;;;;;;5073786;28;19939;-65
2021/12/13 03:58:18;;;;;;;;;;;10.40;99.90;;;;;;5073678;28;20368;-66
2021/12/13 04:01:05;;;;;;;;;;;10.40;99.90;;;;;;5072676;28;19920;-65
2021/12/13 04:03:33;;;;;;;;;;;10.40;99.90;;;;;;5066218;28;20319;-66
2021/12/13 04:06:02;;;;;;;;;;;10.40;99.90;;;;;;5089444;28;19920;-66
2021/12/13 04:08:30;;;;;;;;;;;10.40;99.90;;;;;;5072263;28;19920;-65
2021/12/13 04:11:00;;;;;;;;;;;10.40;99.90;;;;;;5072359;28;19944;-65
2021/12/13 04:13:32;;;;;;;;;;;10.40;99.90;;;;;;5072261;28;19928;-65
2021/12/13 04:19:06;;;;;;;;;;;10.40;99.90;;;;;;5073178;28;19920;-64
2021/12/13 04:21:42;;;;;;;;;;;10.40;99.90;;;;;;5073173;28;19928;-64
2021/12/13 04:24:13;;;;;;;;;;;10.40;99.90;;;;;;5072861;28;20372;-65
2021/12/13 04:26:47;;;;;;;;;;;10.40;99.90;;;;;;5072006;28;19928;-69
2021/12/13 04:29:17;;;;;;;;;;;10.40;99.90;;;;;;5073211;28;19928;-69
2021/12/13 04:31:45;;;;;;;;;;;10.40;99.90;;;;;;5073112;28;19928;-70
2021/12/13 04:34:12;;;;;;;;;;;10.40;99.90;;;;;;5072987;28;19928;-72
2021/12/13 04:36:44;;;;;;;;;;;10.40;99.90;;;;;;5073038;28;19920;-68
2021/12/13 04:39:13;;;;;;;;;;;10.40;99.90;;;;;;5073043;28;19931;-73
2021/12/13 04:42:00;;;;;;;;;;;10.40;99.90;;;;;;5072922;28;20179;-67
2021/12/13 04:44:28;;;;;;;;;;;10.40;99.90;;;;;;5072833;28;20171;-73
2021/12/13 04:46:56;;;;;;;;;;;10.40;99.90;;;;;;5071531;28;20517;-74
2021/12/13 04:49:25;;;;;;;;;;;10.40;99.90;;;;;;5072735;28;19928;-70
2021/12/13 04:52:01;;;;;;;;;;;10.40;99.90;;;;;;5070642;28;20384;-69
2021/12/13 04:54:30;;;;;;;;;;;10.40;99.90;;;;;;5072711;28;20385;-71
2021/12/13 04:56:58;;;;;;;;;;;10.40;99.90;;;;;;5072314;28;20390;-75
2021/12/13 04:59:27;;;;;;;;;;;10.40;99.90;;;;;;5072578;28;20273;-73
2021/12/13 05:01:57;;;;;;;;;;;10.40;99.90;;;;;;5072552;28;20418;-76
2021/12/13 05:04:27;;;;;;;;;;;10.30;99.90;;;;;;5072217;28;19928;-75
2021/12/13 05:06:55;;;;;;;;;;;10.30;99.90;;;;;;5072400;28;19927;-75
2021/12/13 05:09:23;;;;;;;;;;;10.30;99.90;;;;;;5072652;28;19920;-75
2021/12/13 05:11:53;;;;;;;;;;;10.30;99.90;;;;;;5072497;28;19935;-74
2021/12/13 05:14:32;;;;;;;;;;;10.30;99.90;;;;;;5071405;28;19924;-76
2021/12/13 05:17:05;;;;;;;;;;;10.30;99.90;;;;;;5072497;28;19920;-73
2021/12/13 05:19:34;;;;;;;;;;;10.30;99.90;;;;;;5072575;28;20380;-77
2021/12/13 05:22:04;;;;;;;;;;;10.30;99.90;;;;;;5072627;28;20372;-66
2021/12/13 05:24:34;;;;;;;;;;;10.30;99.90;;;;;;5071096;28;19920;-63
2021/12/13 05:27:04;;;;;;;;;;;10.30;99.90;;;;;;5072382;28;19940;-64
2021/12/13 05:29:31;;;;;;;;;;;10.20;99.90;;;;;;5072073;28;20300;-65
2021/12/13 05:32:06;;;;;;;;;;;10.20;99.90;;;;;;5072274;28;19920;-63
2021/12/13 05:34:38;;;;;;;;;;;10.20;99.90;;;;;;5070437;28;19920;-65
2021/12/13 05:37:06;;;;;;;;;;;10.20;99.90;;;;;;5072253;28;19927;-64
2021/12/13 05:39:35;;;;;;;;;;;10.20;99.90;;;;;;5070889;28;19920;-63
2021/12/13 05:42:04;;;;;;;;;;;10.20;99.90;;;;;;5070803;28;19920;-65
2021/12/13 05:44:34;;;;;;;;;;;10.20;99.90;;;;;;5071908;28;19925;-62
2021/12/13 05:47:05;;;;;;;;;;;10.20;99.90;;;;;;5068078;28;19924;-64
2021/12/13 05:49:40;;;;;;;;;;;10.20;99.90;;;;;;5049128;28;19920;-63
2021/12/13 05:52:10;;;;;;;;;;;10.20;99.90;;;;;;5048584;28;20404;-62
2021/12/13 05:54:41;;;;;;;;;;;10.20;99.90;;;;;;5048408;28;19920;-65
2021/12/13 05:57:14;;;;;;;;;;;10.20;99.90;;;;;;5049611;28;19927;-68
2021/12/13 06:00:03;;;;;;;;;;;10.20;99.90;;;;;;5052783;28;19943;-67
2021/12/13 06:02:57;;;;;;;;;;;10.20;99.90;;;;;;5042689;28;20482;-64
2021/12/13 06:05:43;;;;;;;;;;;10.20;99.90;;;;;;5043962;28;19920;-67
2021/12/13 06:08:12;;;;;;;;;;;10.10;99.90;;;;;;5053505;28;19927;-70
2021/12/13 06:10:51;;;;;;;;;;;10.10;99.90;;;;;;5064477;28;19920;-63
2021/12/13 06:13:37;;;;;;;;;;;10.10;99.90;;;;;;5064806;28;20166;-70
2021/12/13 06:16:05;;;;;;;;;;;10.10;99.90;;;;;;5066835;28;19920;-71
2021/12/13 06:18:40;;;;;;;;;;;10.10;99.90;;;;;;5061518;28;19921;-69
2021/12/13 06:21:28;;;;;;;;;;;10.10;99.90;;;;;;5050707;28;20288;-67
2021/12/13 06:23:56;;;;;;;;;;;10.10;99.90;;;;;;5065520;28;19931;-69
2021/12/13 06:26:28;;;;;;;;;;;10.00;99.90;;;;;;5069896;28;20379;-66
2021/12/13 06:28:57;;;;;;;;;;;10.00;99.90;;;;;;5071782;28;19928;-72
2021/12/13 06:31:34;;;;;;;;;;;10.00;99.90;;;;;;5070823;28;19928;-65
2021/12/13 06:34:04;;;;;;;;;;;10.00;99.90;;;;;;5056762;28;19929;-65
2021/12/13 06:36:38;;;;;;;;;;;10.00;99.90;;;;;;5048989;28;19921;-65
2021/12/13 06:39:07;;;;;;;;;;;10.00;99.90;;;;;;5065628;28;20295;-66
2021/12/13 06:41:43;;;;;;;;;;;10.00;99.90;;;;;;5068766;28;19924;-66
2021/12/13 06:44:24;;;;;;;;;;;10.00;99.90;;;;;;5068293;28;19924;-67
2021/12/13 06:46:55;;;;;;;;;;;10.00;99.90;;;;;;5071654;28;19931;-68
2021/12/13 06:49:26;;;;;;;;;;;10.00;99.90;;;;;;5055863;28;19932;-67
2021/12/13 06:51:53;;;;;;;;;;;9.90;99.90;;;;;;5051672;28;19928;-65
2021/12/13 06:54:27;;;;;;;;;;;9.90;99.90;;;;;;5071213;28;19927;-65
2021/12/13 06:56:57;;;;;;;;;;;9.90;99.90;;;;;;5071287;28;19932;-66
2021/12/13 06:59:24;;;;;;;;;;;9.90;99.90;;;;;;5070131;28;19924;-66
2021/12/13 07:02:00;;;;;;;;;;;9.90;99.90;;;;;;5066592;28;20376;-67
2021/12/13 07:04:37;;;;;;;;;;;9.80;99.90;;;;;;5018187;28;20190;-65
2021/12/13 07:07:11;;;;;;;;;;;9.80;99.90;;;;;;5049993;28;20342;-66
2021/12/13 07:09:39;;;;;;;;;;;9.80;99.90;;;;;;5071171;28;19921;-66
2021/12/13 07:12:15;;;;;;;;;;;9.80;99.90;;;;;;5071320;28;19986;-66
2021/12/13 07:14:42;;;;;;;;;;;9.80;99.90;;;;;;5071257;28;19938;-66
2021/12/13 07:17:12;;;;;;;;;;;9.70;99.90;;;;;;5070726;28;19920;-66
2021/12/13 07:19:41;;;;;;;;;;;9.80;99.90;;;;;;5054405;28;20376;-66
2021/12/13 07:22:09;;;;;;;;;;;9.70;99.90;;;;;;5053321;28;20415;-66
2021/12/13 07:24:44;;;;;;;;;;;9.70;99.90;;;;;;5069510;28;19931;-65
2021/12/13 07:27:19;;;;;;;;;;;9.70;99.90;;;;;;5070438;28;19921;-67
2021/12/13 07:29:50;;;;;;;;;;;9.80;99.90;;;;;;5071484;28;19921;-68
2021/12/13 07:32:26;;;;;;;;;;;9.70;99.90;;;;;;5068075;28;19924;-66
2021/12/13 07:35:10;;;;;;;;;;;9.80;99.90;;;;;;5048296;28;19943;-66
2021/12/13 07:37:42;;;;;;;;;;;9.70;99.90;;;;;;5056003;28;20391;-68
2021/12/13 07:40:15;;;;;;;;;;;9.70;99.90;;;;;;5070824;28;19920;-67
2021/12/13 07:42:57;;;;;;;;;;;9.70;99.90;;;;;;5069113;28;19943;-70
2021/12/13 07:45:33;;;;;;;;;;;9.70;99.90;;;;;;5070638;28;20319;-70
2021/12/13 07:48:04;;;;;;;;;;;9.70;99.90;;;;;;5069538;28;19920;-71
2021/12/13 07:50:32;;;;;;;;;;;9.70;99.90;;;;;;5049511;28;19935;-67
2021/12/13 07:53:01;;;;;;;;;;;9.70;99.90;;;;;;5060150;28;19921;-69
2021/12/13 07:55:30;;;;;;;;;;;9.70;99.90;;;;;;5070598;28;19920;-71
2021/12/13 07:58:02;;;;;;;;;;;9.70;99.90;;;;;;5070099;28;19924;-69
2021/12/13 08:00:32;;;;;;;;;;;9.70;99.90;;;;;;5069878;28;19920;-66
2021/12/13 08:03:02;;;;;;;;;;;9.70;99.90;;;;;;5066785;28;19943;-66
2021/12/13 08:05:33;;;;;;;;;;;9.70;99.90;;;;;;5047127;28;19920;-67
2021/12/13 08:08:01;;;;;;;;;;;9.70;99.90;;;;;;5057352;28;19920;-66
2021/12/13 08:10:39;;;;;;;;;;;9.70;99.90;;;;;;5070376;28;20008;-65
2021/12/13 08:13:09;;;;;;;;;;;9.70;99.90;;;;;;5069916;28;20312;-65
2021/12/13 08:15:39;;;;;;;;;;;9.70;99.90;;;;;;5069787;28;19943;-65
2021/12/13 08:18:20;;;;;;;;;;;9.70;99.90;;;;;;5069733;28;19935;-64
2021/12/13 08:20:49;;;;;;;;;;;9.70;99.90;;;;;;5049792;28;19931;-64
2021/12/13 08:23:21;;;;;;;;;;;9.70;99.90;;;;;;5059782;28;19920;-66
2021/12/13 08:25:50;;;;;;;;;;;9.70;99.90;;;;;;5069657;28;19947;-65
2021/12/13 08:28:29;;;;;;;;;;;9.70;99.90;;;;;;5069460;28;19926;-67
2021/12/13 08:30:58;;;;;;;;;;;9.70;99.90;;;;;;5069760;28;19925;-66
2021/12/13 08:33:31;;;;;;;;;;;9.70;99.90;;;;;;5068167;28;20367;-68
2021/12/13 08:36:02;;;;;;;;;;;9.70;99.90;;;;;;5069367;28;19920;-66
2021/12/13 08:38:32;;;;;;;;;;;9.70;99.90;;;;;;5068016;28;20395;-67
2021/12/13 08:41:16;;;;;;;;;;;9.70;99.90;;;;;;5068866;28;20391;-66
2021/12/13 08:43:51;;;;;;;;;;;9.70;99.90;;;;;;5069485;28;19939;-67
2021/12/13 08:46:36;;;;;;;;;;;9.70;99.90;;;;;;5069348;28;19927;-65
2021/12/13 08:49:13;;;;;;;;;;;9.70;99.90;;;;;;5064251;28;19928;-64
2021/12/13 08:51:48;;;;;;;;;;;9.70;99.90;;;;;;5049393;28;19920;-65
2021/12/13 08:54:16;;;;;;;;;;;9.70;99.90;;;;;;5067491;28;19927;-64
2021/12/13 08:56:45;;;;;;;;;;;9.70;99.90;;;;;;5068333;28;20189;-64
2021/12/13 08:59:23;;;;;;;;;;;9.80;99.90;;;;;;5069239;28;19925;-66
2021/12/13 09:01:54;;;;;;;;;;;9.70;99.90;;;;;;5069246;28;20376;-67
2021/12/13 09:04:26;;;;;;;;;;;9.80;99.90;;;;;;5057949;28;19924;-65
2021/12/13 09:06:56;;;;;;;;;;;9.80;99.90;;;;;;5064242;28;19925;-65
2021/12/13 09:09:24;;;;;;;;;;;9.80;99.90;;;;;;5067113;28;20136;-64
2021/12/13 09:11:58;;;;;;;;;;;9.80;99.90;;;;;;5069602;28;19920;-65
2021/12/13 09:14:35;;;;;;;;;;;9.80;99.90;;;;;;5068845;28;19927;-64
2021/12/13 09:17:23;;;;;;;;;;;9.80;99.90;;;;;;5068805;28;19920;-64
2021/12/13 09:20:04;;;;;;;;;;;9.80;99.90;;;;;;5059490;28;20471;-64
2021/12/13 09:22:35;;;;;;;;;;;9.90;99.90;;;;;;5054317;28;19932;-65
2021/12/13 09:25:21;;;;;;;;;;;9.80;99.90;;;;;;5068899;28;19920;-65
2021/12/13 09:27:48;;;;;;;;;;;9.80;99.90;;;;;;5068687;28;19920;-66
2021/12/13 09:30:19;;;;;;;;;;;9.80;99.90;;;;;;5067202;28;19928;-66
2021/12/13 09:32:59;;;;;;;;;;;9.90;99.90;;;;;;5068401;28;19924;-66
2021/12/13 09:35:41;;;;;;;;;;;9.80;99.90;;;;;;5063396;28;19921;-65
2021/12/13 09:38:19;;;;;;;;;;;9.80;99.90;;;;;;5055861;28;20276;-65
2021/12/13 09:40:52;;;;;;;;;;;9.90;99.90;;;;;;5067420;28;20543;-65
2021/12/13 09:43:21;;;;;;;;;;;9.90;99.90;;;;;;5060701;28;19928;-65
2021/12/13 09:45:52;;;;;;;;;;;9.90;99.90;;;;;;5054700;28;20010;-65
2021/12/13 09:48:26;;;;;;;;;;;9.90;99.90;;;;;;5056074;28;19925;-65
2021/12/13 09:50:56;;;;;;;;;;;9.80;99.90;;;;;;5065141;28;19924;-64
2021/12/13 09:53:31;;;;;;;;;;;10.00;99.90;;;;;;5064936;28;20383;-65
2021/12/13 09:56:00;;;;;;;;;;;10.00;99.90;;;;;;5061480;28;20300;-65
2021/12/13 09:58:33;;;;;;;;;;;10.10;99.90;;;;;;5066835;28;19924;-65
2021/12/13 10:01:01;;;;;;;;;;;10.10;99.90;;;;;;5067201;28;19931;-65
2021/12/13 10:03:44;;;;;;;;;;;10.20;99.90;;;;;;5067519;28;19921;-65
2021/12/13 10:06:12;;;;;;;;;;;10.20;99.90;;;;;;5066614;28;19920;-65
2021/12/13 10:08:49;;;;;;;;;;;10.20;99.90;;;;;;5068116;28;19943;-64
2021/12/13 10:11:20;;;;;;;;;;;10.30;99.90;;;;;;5067544;28;20189;-65
2021/12/13 10:13:48;;;;;;;;;;;10.30;99.90;;;;;;5063412;28;19921;-72
2021/12/13 10:16:21;;;;;;;;;;;10.30;99.90;;;;;;5066372;28;20295;-71
2021/12/13 10:18:51;;;;;;;;;;;10.30;99.90;;;;;;5067372;28;19932;-67
2021/12/13 10:21:21;;;;;;;;;;;10.30;99.90;;;;;;5065944;28;19924;-63
2021/12/13 10:23:51;;;;;;;;;;;10.30;99.90;;;;;;5066354;28;19924;-65
2021/12/13 10:26:30;;;;;;;;;;;10.30;99.90;;;;;;5067800;28;20261;-65
2021/12/13 10:28:59;;;;;;;;;;;10.30;99.90;;;;;;5062705;28;19925;-63
2021/12/13 10:31:29;;;;;;;;;;;10.30;99.90;;;;;;5059657;28;19943;-71
2021/12/13 10:33:58;;;;;;;;;;;10.40;99.90;;;;;;5067567;28;20312;-69
2021/12/13 10:36:28;;;;;;;;;;;10.40;99.90;;;;;;5067854;28;20280;-64
2021/12/13 10:38:58;;;;;;;;;;;10.40;99.90;;;;;;5062024;28;20292;-65
2021/12/13 10:41:38;;;;;;;;;;;10.40;99.90;;;;;;5051570;28;19928;-66
2021/12/13 10:44:08;;;;;;;;;;;10.40;99.90;;;;;;5063730;28;20308;-64
2021/12/13 10:46:38;;;;;;;;;;;10.40;99.90;;;;;;5044691;28;19927;-64
2021/12/13 10:49:11;;;;;;;;;;;10.40;99.90;;;;;;5060952;28;19937;-64
2021/12/13 10:51:40;;;;;;;;;;;10.30;99.90;;;;;;5056596;28;19935;-65
2021/12/13 10:54:13;;;;;;;;;;;10.30;99.90;;;;;;5063921;28;19920;-64
2021/12/13 10:56:43;;;;;;;;;;;10.30;99.90;;;;;;5085978;28;19932;-65
2021/12/13 10:59:12;;;;;;;;;;;10.30;99.90;;;;;;5065621;28;19928;-65
2021/12/13 11:01:42;;;;;;;;;;;10.30;99.90;;;;;;5064445;28;20353;-65
2021/12/13 11:04:13;;;;;;;;;;;10.20;99.90;;;;;;5067409;28;19921;-66
2021/12/13 11:06:41;;;;;;;;;;;10.20;99.90;;;;;;5061458;28;19931;-66
2021/12/13 11:09:11;;;;;;;;;;;10.20;99.90;;;;;;5068540;28;19921;-65
2021/12/13 11:11:43;;;;;;;;;;;10.10;99.90;;;;;;5069980;28;20174;-66
2021/12/13 11:14:13;;;;;;;;;;;10.10;99.90;;;;;;5069495;28;19927;-65
2021/12/13 11:16:42;;;;;;;;;;;10.10;99.90;;;;;;5055212;28;20300;-67
2021/12/13 11:19:12;;;;;;;;;;;10.10;99.90;;;;;;5068289;28;20368;-65
2021/12/13 11:21:41;;;;;;;;;;;10.10;99.90;;;;;;5070798;28;19944;-65
2021/12/13 11:24:12;;;;;;;;;;;10.10;99.90;;;;;;5068024;28;20327;-65
2021/12/13 11:26:43;;;;;;;;;;;10.10;99.90;;;;;;5067805;28;20360;-66
2021/12/13 11:29:11;;;;;;;;;;;10.10;99.90;;;;;;5067087;28;19936;-65
2021/12/13 11:31:52;;;;;;;;;;;10.10;99.90;;;;;;5056604;28;19936;-65
2021/12/13 11:34:39;;;;;;;;;;;10.20;99.90;;;;;;5069583;28;20300;-65
2021/12/13 11:37:36;;;;;;;;;;;10.20;99.90;;;;;;5070859;28;19920;-65
2021/12/13 11:40:31;;;;;;;;;;;10.20;99.90;;;;;;5070503;28;19921;-64
2021/12/13 11:43:10;;;;;;;;;;;10.10;99.90;;;;;;5069399;28;19920;-65
2021/12/13 11:45:56;;;;;;;;;;;10.10;99.90;;;;;;5065542;28;19931;-65
2021/12/13 11:48:36;;;;;;;;;;;10.10;99.90;;;;;;5061507;28;19921;-66
2021/12/13 11:51:08;;;;;;;;;;;10.10;99.90;;;;;;5070449;28;19948;-65
2021/12/13 11:53:57;;;;;;;;;;;10.10;99.90;;;;;;5070226;28;19924;-65
2021/12/13 11:56:43;;;;;;;;;;;10.10;99.90;;;;;;5070412;28;19920;-65
2021/12/13 11:59:14;;;;;;;;;;;10.20;99.90;;;;;;5069220;28;20271;-65
2021/12/13 12:02:01;;;;;;;;;;;10.10;99.90;;;;;;5053980;28;20386;-65
2021/12/13 12:04:47;;;;;;;;;;;10.10;99.90;;;;;;5066380;28;19931;-65
2021/12/13 12:07:34;;;;;;;;;;;10.10;99.90;;;;;;5070496;28;19925;-65
2021/12/13 12:10:04;;;;;;;;;;;10.10;99.90;;;;;;5070244;28;19925;-66
2021/12/13 12:12:50;;;;;;;;;;;10.10;99.90;;;;;;5070002;28;19929;-66
2021/12/13 12:15:18;;;;;;;;;;;10.10;99.90;;;;;;5068661;28;20295;-66
2021/12/13 12:17:46;;;;;;;;;;;10.10;99.90;;;;;;5069612;28;19920;-66
2021/12/13 12:20:15;;;;;;;;;;;10.10;99.90;;;;;;5069839;28;19932;-65
2021/12/13 12:22:52;;;;;;;;;;;10.10;99.90;;;;;;5068418;28;20422;-66
2021/12/13 12:25:21;;;;;;;;;;;10.10;99.90;;;;;;5070062;28;19920;-64
2021/12/13 12:27:50;;;;;;;;;;;10.00;99.90;;;;;;5069375;28;19921;-66
2021/12/13 12:30:20;;;;;;;;;;;10.00;99.90;;;;;;5068445;28;19931;-65
2021/12/13 12:32:54;;;;;;;;;;;10.00;99.90;;;;;;5067969;28;20139;-65
2021/12/13 12:35:23;;;;;;;;;;;10.00;99.90;;;;;;5069983;28;19920;-65
2021/12/13 12:38:01;;;;;;;;;;;10.00;99.90;;;;;;5068066;28;19920;-65
2021/12/13 12:40:35;;;;;;;;;;;9.90;99.90;;;;;;5069770;28;19924;-65
2021/12/13 12:43:07;;;;;;;;;;;9.90;99.90;;;;;;5069396;28;19924;-65
2021/12/13 12:45:38;;;;;;;;;;;9.90;99.90;;;;;;5068736;28;20398;-66
2021/12/13 12:48:11;;;;;;;;;;;9.90;99.90;;;;;;5055949;28;20286;-65
2021/12/13 12:50:42;;;;;;;;;;;9.90;99.90;;;;;;5069841;28;19920;-65
2021/12/13 12:53:15;;;;;;;;;;;10.00;99.90;;;;;;5068973;28;19920;-66
2021/12/13 12:55:52;;;;;;;;;;;9.90;99.90;;;;;;5068186;28;19920;-65
2021/12/13 12:58:23;;;;;;;;;;;9.90;99.90;;;;;;5069258;28;19920;-65
2021/12/13 13:00:52;;;;;;;;;;;9.90;99.90;;;;;;5067867;28;19936;-68
2021/12/13 13:03:37;;;;;;;;;;;9.90;99.90;;;;;;5059126;28;19928;-66
2021/12/13 13:06:12;;;;;;;;;;;9.90;99.90;;;;;;5069387;28;19924;-66
2021/12/13 13:08:42;;;;;;;;;;;10.00;99.90;;;;;;5069059;28;20368;-66
2021/12/13 13:13:48;;;;;;;;;;;10.00;99.90;;;;;;5069180;28;19920;-66
2021/12/13 13:16:25;;;;;;;;;;;10.00;99.90;;;;;;5064449;28;20295;-66
2021/12/13 13:18:55;;;;;;;;;;;10.00;99.90;;;;;;5063239;28;19925;-66
2021/12/13 13:21:23;;;;;;;;;;;10.00;99.90;;;;;;5068559;28;19920;-65
2021/12/13 13:23:52;;;;;;;;;;;9.90;99.90;;;;;;5068334;28;20295;-66
2021/12/13 13:26:20;;;;;;;;;;;9.90;99.90;;;;;;5068592;28;20308;-67
2021/12/13 13:28:52;;;;;;;;;;;9.90;99.90;;;;;;5068394;28;19927;-67
2021/12/13 13:31:26;;;;;;;;;;;9.90;99.90;;;;;;5064702;28;19936;-66
2021/12/13 13:34:03;;;;;;;;;;;9.90;99.90;;;;;;5061580;28;19928;-66
2021/12/13 13:36:42;;;;;;;;;;;9.90;99.90;;;;;;5068618;28;19920;-66
2021/12/13 13:39:10;;;;;;;;;;;9.90;99.90;;;;;;5068709;28;20177;-67
2021/12/13 13:41:37;;;;;;;;;;;9.80;99.90;;;;;;5068580;28;19927;-67
2021/12/13 13:44:10;;;;;;;;;;;9.80;99.90;;;;;;5050479;28;19931;-66
2021/12/13 13:46:41;;;;;;;;;;;9.80;99.90;;;;;;5062958;28;20433;-67
2021/12/13 13:49:08;;;;;;;;;;;9.80;99.90;;;;;;5065067;28;20308;-67
2021/12/13 13:51:37;;;;;;;;;;;9.80;99.90;;;;;;5067259;28;19928;-67
2021/12/13 13:54:06;;;;;;;;;;;9.70;99.90;;;;;;5068127;28;20363;-67
2021/12/13 13:56:36;;;;;;;;;;;9.70;99.90;;;;;;5068492;28;19931;-66
2021/12/13 13:59:05;;;;;;;;;;;9.70;99.90;;;;;;5068372;28;20371;-66
2021/12/13 14:01:39;;;;;;;;;;;9.70;99.90;;;;;;5064119;28;19924;-66
2021/12/13 14:04:19;;;;;;;;;;;9.60;99.90;;;;;;5064176;28;19920;-66
2021/12/13 14:06:48;;;;;;;;;;;9.70;99.90;;;;;;5068659;28;20026;-66
2021/12/13 14:09:18;;;;;;;;;;;9.70;99.90;;;;;;5067871;28;19939;-66
2021/12/13 14:11:52;;;;;;;;;;;9.60;99.90;;;;;;5068049;28;19924;-66
2021/12/13 14:14:21;;;;;;;;;;;9.60;99.90;;;;;;5067998;28;19924;-66
2021/12/13 14:16:51;;;;;;;;;;;9.60;99.90;;;;;;5063409;28;19920;-66
2021/12/13 14:19:29;;;;;;;;;;;9.60;99.90;;;;;;5065796;28;19920;-66
2021/12/13 14:21:57;;;;;;;;;;;9.60;99.90;;;;;;5067070;28;19934;-66
2021/12/13 14:24:33;;;;;;;;;;;9.60;99.90;;;;;;5068000;28;19920;-65
2021/12/13 14:27:11;;;;;;;;;;;9.50;99.90;;;;;;5066732;28;19928;-66
2021/12/13 14:29:39;;;;;;;;;;;9.60;99.90;;;;;;5068157;28;19920;-66
2021/12/13 14:32:10;;;;;;;;;;;9.50;99.90;;;;;;5061449;28;19933;-66
2021/12/13 14:34:38;;;;;;;;;;;9.50;99.90;;;;;;5063872;28;19924;-66
2021/12/13 14:37:06;;;;;;;;;;;9.50;99.90;;;;;;5069076;28;20399;-65
2021/12/13 14:39:36;;;;;;;;;;;9.50;99.90;;;;;;5071765;28;19925;-65
2021/12/13 14:42:06;;;;;;;;;;;9.50;99.90;;;;;;5054129;28;19920;-65
2021/12/13 14:44:36;;;;;;;;;;;9.50;99.90;;;;;;5037127;28;19928;-66
2021/12/13 14:47:07;;;;;;;;;;;9.50;99.90;;;;;;5065238;28;19920;-65
2021/12/13 14:49:44;;;;;;;;;;;9.40;99.90;;;;;;5050777;28;19921;-65
2021/12/13 14:52:16;;;;;;;;;;;9.50;99.90;;;;;;5051651;28;19936;-66
2021/12/13 14:54:45;;;;;;;;;;;9.50;99.90;;;;;;5067546;28;19928;-64
2021/12/13 14:57:14;;;;;;;;;;;9.50;99.90;;;;;;5071466;28;19924;-66
2021/12/13 14:59:44;;;;;;;;;;;9.50;99.90;;;;;;5070084;28;19920;-65
2021/12/13 15:02:17;;;;;;;;;;;9.50;99.90;;;;;;5066012;28;19939;-67
2021/12/13 15:04:46;;;;;;;;;;;9.50;99.90;;;;;;5067813;28;20408;-69
2021/12/13 15:07:16;;;;;;;;;;;9.40;99.90;;;;;;5071402;28;19924;-69